UWKD 171730Z 10003MPS 060V120 8000 -SHRA BKN037CB 10/07 Q1001 R11/2/0050 NOSIG RMK QFE740/0987
QNH:(hPa/inHg/mmHg)1001 / 29.56 / 751
QFE:(hPa/inHg/mmHg)986 / 29.11 / 739
Temperature10
Dew Point7
Visibility8000
WeatherLight Showers Rain
Cloud CoverBKN (3700);
Transition Height900 m./3400 ft.
Transition LevelFL50
SQUAWK